createdAt,value
2019-02-16T00:00:12.507Z,8.84
2019-02-16T00:01:12.442Z,8.81
2019-02-16T00:02:12.482Z,8.84
2019-02-16T00:03:12.453Z,8.81
2019-02-16T00:04:12.498Z,8.77
2019-02-16T00:05:12.516Z,8.84
2019-02-16T00:06:12.476Z,8.82
2019-02-16T00:07:12.489Z,8.81
2019-02-16T00:08:12.477Z,8.81
2019-02-16T00:09:12.523Z,8.75
2019-02-16T00:10:12.489Z,8.71
2019-02-16T00:11:12.513Z,8.69
2019-02-16T00:12:12.497Z,8.77
2019-02-16T00:13:12.510Z,8.69
2019-02-16T00:14:12.516Z,8.72
2019-02-16T00:15:12.536Z,8.68
2019-02-16T00:16:12.544Z,8.71
2019-02-16T00:17:12.577Z,8.66
2019-02-16T00:18:12.534Z,8.64
2019-02-16T00:19:12.549Z,8.60
2019-02-16T00:20:12.587Z,8.66
2019-02-16T00:21:12.535Z,8.68
2019-02-16T00:22:12.534Z,8.66
2019-02-16T00:23:12.544Z,8.68
2019-02-16T00:24:12.552Z,8.68
2019-02-16T00:25:12.547Z,8.66
2019-02-16T00:26:12.610Z,8.61
2019-02-16T00:27:12.561Z,8.63
2019-02-16T00:28:12.575Z,8.63
2019-02-16T00:29:12.569Z,8.59
2019-02-16T00:30:12.624Z,8.60
2019-02-16T00:31:12.582Z,8.60
2019-02-16T00:32:12.630Z,8.64
2019-02-16T00:33:12.596Z,8.57
2019-02-16T00:34:12.593Z,8.59
2019-02-16T00:35:12.587Z,8.60
2019-02-16T00:36:12.583Z,8.57
2019-02-16T00:37:12.596Z,8.56
2019-02-16T00:38:12.643Z,8.57
2019-02-16T00:39:12.604Z,8.56
2019-02-16T00:40:12.602Z,8.63
2019-02-16T00:41:12.604Z,8.63
2019-02-16T00:42:12.611Z,8.59
2019-02-16T00:43:12.679Z,8.59
2019-02-16T00:44:12.627Z,8.60
2019-02-16T00:45:12.621Z,8.59
2019-02-16T00:46:12.634Z,8.63
2019-02-16T00:47:12.635Z,8.59
2019-02-16T00:48:12.665Z,8.61
2019-02-16T00:49:12.657Z,8.59
2019-02-16T00:50:12.651Z,8.64
2019-02-16T00:51:13.884Z,8.59
2019-02-16T00:52:12.661Z,8.57
2019-02-16T00:53:12.698Z,8.54
2019-02-16T00:54:12.700Z,8.57
2019-02-16T00:55:12.679Z,8.57
2019-02-16T00:56:12.674Z,8.56
2019-02-16T00:57:12.687Z,8.59
2019-02-16T00:58:12.762Z,8.54
2019-02-16T00:59:12.680Z,8.59
2019-02-16T01:00:12.683Z,8.60
2019-02-16T01:01:12.690Z,8.54
2019-02-16T01:02:12.720Z,8.54
2019-02-16T01:03:12.688Z,8.52
2019-02-16T01:04:12.748Z,8.50
2019-02-16T01:05:12.702Z,8.42
2019-02-16T01:06:12.715Z,8.46
2019-02-16T01:07:12.722Z,8.46
2019-02-16T01:08:12.722Z,8.46
2019-02-16T01:09:12.736Z,8.41
2019-02-16T01:10:12.741Z,8.42
2019-02-16T01:11:12.742Z,8.49
2019-02-16T01:12:12.722Z,8.45
2019-02-16T01:13:12.735Z,8.44
2019-02-16T01:14:12.743Z,8.46
2019-02-16T01:15:12.759Z,8.46
2019-02-16T01:16:12.755Z,8.49
2019-02-16T01:17:12.753Z,8.39
2019-02-16T01:18:12.746Z,8.38
2019-02-16T01:19:12.780Z,8.38
2019-02-16T01:20:12.780Z,8.38
2019-02-16T01:21:12.759Z,8.36
2019-02-16T01:22:12.768Z,8.38
2019-02-16T01:23:12.800Z,8.26
2019-02-16T01:24:12.792Z,8.23
2019-02-16T01:25:12.803Z,8.27
2019-02-16T01:26:12.791Z,8.38
2019-02-16T01:27:12.796Z,8.27
2019-02-16T01:28:12.812Z,8.27
2019-02-16T01:29:12.795Z,8.28
2019-02-16T01:30:12.845Z,8.28
2019-02-16T01:31:12.839Z,8.27
2019-02-16T01:32:12.822Z,8.31
2019-02-16T01:33:12.814Z,8.21
2019-02-16T01:34:12.813Z,8.28
2019-02-16T01:35:12.827Z,8.21
2019-02-16T01:36:12.868Z,8.20
2019-02-16T01:37:12.844Z,8.23
2019-02-16T01:38:12.829Z,8.09
2019-02-16T01:39:12.831Z,8.23
2019-02-16T01:40:12.838Z,8.23
2019-02-16T01:41:12.845Z,8.11
2019-02-16T01:42:12.862Z,8.05
2019-02-16T01:43:12.862Z,8.08
2019-02-16T01:44:12.875Z,8.05
2019-02-16T01:45:12.858Z,8.05
2019-02-16T01:46:12.854Z,8.01
2019-02-16T01:47:12.910Z,8.02
2019-02-16T01:48:12.872Z,8.02
2019-02-16T01:49:12.881Z,8.03
2019-02-16T01:50:12.863Z,8.01
2019-02-16T01:51:12.888Z,7.98
2019-02-16T01:52:12.885Z,8.01
2019-02-16T01:53:12.943Z,7.99
2019-02-16T01:54:12.888Z,7.99
2019-02-16T01:55:12.902Z,8.01
2019-02-16T01:56:12.957Z,7.96
2019-02-16T01:57:12.902Z,8.02
2019-02-16T01:58:12.919Z,7.88
2019-02-16T01:59:12.979Z,7.91
2019-02-16T02:00:12.925Z,7.96
2019-02-16T02:01:12.928Z,7.90
2019-02-16T02:02:12.920Z,7.93
2019-02-16T02:03:12.915Z,7.90
2019-02-16T02:04:12.972Z,7.95
2019-02-16T02:05:12.935Z,7.91
2019-02-16T02:06:12.936Z,7.85
2019-02-16T02:07:12.929Z,7.72
2019-02-16T02:08:12.952Z,7.84
2019-02-16T02:09:12.984Z,7.83
2019-02-16T02:10:12.964Z,7.87
2019-02-16T02:11:12.977Z,7.74
2019-02-16T02:12:12.962Z,7.78
2019-02-16T02:13:12.976Z,7.74
2019-02-16T02:14:12.998Z,7.77
2019-02-16T02:15:13.005Z,7.78
2019-02-16T02:16:13.057Z,7.84
2019-02-16T02:17:13.006Z,7.67
2019-02-16T02:18:12.978Z,7.75
2019-02-16T02:19:13.004Z,7.77
2019-02-16T02:20:13.021Z,7.67
2019-02-16T02:21:13.018Z,7.66
2019-02-16T02:22:13.022Z,7.77
2019-02-16T02:23:13.074Z,7.67
2019-02-16T02:24:12.992Z,7.69
2019-02-16T02:25:13.033Z,7.59
2019-02-16T02:26:13.013Z,7.75
2019-02-16T02:27:13.029Z,7.66
2019-02-16T02:28:13.019Z,7.59
2019-02-16T02:29:13.027Z,7.70
2019-02-16T02:30:13.052Z,7.69
2019-02-16T02:31:13.036Z,7.59
2019-02-16T02:32:13.095Z,7.70
2019-02-16T02:33:13.044Z,7.56
2019-02-16T02:34:13.026Z,7.56
2019-02-16T02:35:13.031Z,7.58
2019-02-16T02:36:13.062Z,7.56
2019-02-16T02:37:13.070Z,7.58
2019-02-16T02:38:13.087Z,7.55
2019-02-16T02:39:13.047Z,7.55
2019-02-16T02:40:13.060Z,7.55
2019-02-16T02:41:13.065Z,7.56
2019-02-16T02:42:13.069Z,7.56
2019-02-16T02:43:13.089Z,7.55
2019-02-16T02:44:13.092Z,7.55
2019-02-16T02:45:13.102Z,7.51
2019-02-16T02:46:13.073Z,7.51
2019-02-16T02:47:13.109Z,7.48
2019-02-16T02:48:13.086Z,7.44
2019-02-16T02:49:13.093Z,7.48
2019-02-16T02:50:13.122Z,7.47
2019-02-16T02:51:13.145Z,7.43
2019-02-16T02:52:13.106Z,7.43
2019-02-16T02:53:13.091Z,7.47
2019-02-16T02:54:13.099Z,7.41
2019-02-16T02:55:13.108Z,7.41
2019-02-16T02:56:13.153Z,7.37
2019-02-16T02:57:13.114Z,7.41
2019-02-16T02:58:13.132Z,7.32
2019-02-16T02:59:13.122Z,7.41
2019-02-16T03:00:13.118Z,7.40
2019-02-16T03:01:13.152Z,7.36
2019-02-16T03:02:13.131Z,7.41
2019-02-16T03:03:13.144Z,7.32
2019-02-16T03:04:13.140Z,7.33
2019-02-16T03:05:13.167Z,7.28
2019-02-16T03:06:13.147Z,7.28
2019-02-16T03:07:13.205Z,7.32
2019-02-16T03:08:13.162Z,7.28
2019-02-16T03:09:13.152Z,7.22
2019-02-16T03:10:13.161Z,7.25
2019-02-16T03:11:13.164Z,7.22
2019-02-16T03:12:13.188Z,7.19
2019-02-16T03:13:13.230Z,7.21
2019-02-16T03:14:13.178Z,7.25
2019-02-16T03:15:13.179Z,7.28
2019-02-16T03:16:13.191Z,7.25
2019-02-16T03:17:13.200Z,7.28
2019-02-16T03:18:13.223Z,7.18
2019-02-16T03:19:13.212Z,7.25
2019-02-16T03:20:13.192Z,7.21
2019-02-16T03:21:13.198Z,7.18
2019-02-16T03:22:13.202Z,7.14
2019-02-16T03:23:13.224Z,7.21
2019-02-16T03:24:13.227Z,7.11
2019-02-16T03:25:13.217Z,7.04
2019-02-16T03:26:13.262Z,7.05
2019-02-16T03:27:13.209Z,7.04
2019-02-16T03:28:13.246Z,7.10
2019-02-16T03:29:13.284Z,7.04
2019-02-16T03:30:13.243Z,7.05
2019-02-16T03:31:13.238Z,7.08
2019-02-16T03:32:13.231Z,6.93
2019-02-16T03:33:13.244Z,7.03
2019-02-16T03:34:13.265Z,7.00
2019-02-16T03:35:13.243Z,6.89
2019-02-16T03:36:13.241Z,6.96
2019-02-16T03:37:13.249Z,7.00
2019-02-16T03:38:13.250Z,7.01
2019-02-16T03:39:13.270Z,7.03
2019-02-16T03:40:13.274Z,7.03
2019-02-16T03:41:13.252Z,6.89
2019-02-16T03:42:13.268Z,6.87
2019-02-16T03:43:13.270Z,6.86
2019-02-16T03:44:13.327Z,6.90
2019-02-16T03:45:13.267Z,7.00
2019-02-16T03:46:13.291Z,6.92
2019-02-16T03:47:13.278Z,6.97
2019-02-16T03:48:13.274Z,6.90
2019-02-16T03:49:13.280Z,6.97
2019-02-16T03:50:13.317Z,6.93
2019-02-16T03:51:13.293Z,6.85
2019-02-16T03:52:14.348Z,6.87
2019-02-16T03:53:13.303Z,6.87
2019-02-16T03:54:13.329Z,6.85
2019-02-16T03:55:13.356Z,6.80
2019-02-16T03:56:13.328Z,6.83
2019-02-16T03:57:13.324Z,6.82
2019-02-16T03:58:13.340Z,6.89
2019-02-16T03:59:13.328Z,6.80
2019-02-16T04:00:13.338Z,6.83
2019-02-16T04:01:13.409Z,6.85
2019-02-16T04:02:13.360Z,6.82
2019-02-16T04:03:13.332Z,6.77
2019-02-16T04:04:13.327Z,6.77
2019-02-16T04:05:13.336Z,6.67
2019-02-16T04:06:13.427Z,6.65
2019-02-16T04:07:13.339Z,6.71
2019-02-16T04:08:13.680Z,6.68
2019-02-16T04:09:13.341Z,6.64
2019-02-16T04:10:13.358Z,6.77
2019-02-16T04:11:13.366Z,6.77
2019-02-16T04:12:13.384Z,6.74
2019-02-16T04:13:13.359Z,6.60
2019-02-16T04:14:13.395Z,6.68
2019-02-16T04:15:13.396Z,6.60
2019-02-16T04:16:13.370Z,6.70
2019-02-16T04:17:13.413Z,6.65
2019-02-16T04:18:13.388Z,6.65
2019-02-16T04:19:13.372Z,6.68
2019-02-16T04:20:13.424Z,6.70
2019-02-16T04:21:13.385Z,6.62
2019-02-16T04:22:23.955Z,6.64
2019-02-16T04:23:13.393Z,6.60
2019-02-16T04:24:13.430Z,6.56
2019-02-16T04:25:13.408Z,6.62
2019-02-16T04:26:13.423Z,6.56
2019-02-16T04:27:13.431Z,6.67
2019-02-16T04:28:13.456Z,6.56
2019-02-16T04:29:13.438Z,6.54
2019-02-16T04:30:13.404Z,6.57
2019-02-16T04:31:13.416Z,6.53
2019-02-16T04:32:13.421Z,6.56
2019-02-16T04:33:13.484Z,6.50
2019-02-16T04:34:13.421Z,6.59
2019-02-16T04:35:13.443Z,6.57
2019-02-16T04:36:13.455Z,6.57
2019-02-16T04:37:13.441Z,6.62
2019-02-16T04:38:13.443Z,6.60
2019-02-16T04:39:13.506Z,6.56
2019-02-16T04:40:13.456Z,6.54
2019-02-16T04:41:13.460Z,6.54
2019-02-16T04:42:13.446Z,6.56
2019-02-16T04:43:13.478Z,6.57
2019-02-16T04:44:13.492Z,6.56
2019-02-16T04:45:13.454Z,6.50
2019-02-16T04:46:13.475Z,6.44
2019-02-16T04:47:13.486Z,6.44
2019-02-16T04:48:13.468Z,6.53
2019-02-16T04:49:13.468Z,6.52
2019-02-16T04:50:13.483Z,6.50
2019-02-16T04:51:13.490Z,6.53
2019-02-16T04:52:13.494Z,6.50
2019-02-16T04:53:13.491Z,6.47
2019-02-16T04:54:13.547Z,6.47
2019-02-16T04:55:13.520Z,6.49
2019-02-16T04:56:13.521Z,6.47
2019-02-16T04:57:13.498Z,6.47
2019-02-16T04:58:13.502Z,6.46
2019-02-16T04:59:13.503Z,6.43
2019-02-16T05:00:13.534Z,6.46
2019-02-16T05:01:13.523Z,6.44
2019-02-16T05:02:13.517Z,6.43
2019-02-16T05:03:13.513Z,6.43
2019-02-16T05:04:13.526Z,6.38
2019-02-16T05:05:13.545Z,6.41
2019-02-16T05:06:13.588Z,6.53
2019-02-16T05:07:13.513Z,6.34
2019-02-16T05:08:13.568Z,6.41
2019-02-16T05:09:13.528Z,6.41
2019-02-16T05:10:13.551Z,6.41
2019-02-16T05:11:13.538Z,6.44
2019-02-16T05:12:13.561Z,6.44
2019-02-16T05:13:13.568Z,6.46
2019-02-16T05:14:13.543Z,6.46
2019-02-16T05:15:13.590Z,6.44
2019-02-16T05:16:13.564Z,6.49
2019-02-16T05:17:13.581Z,6.29
2019-02-16T05:18:13.559Z,6.43
2019-02-16T05:19:13.593Z,6.39
2019-02-16T05:20:13.560Z,6.41
2019-02-16T05:21:13.578Z,6.38
2019-02-16T05:22:13.628Z,6.39
2019-02-16T05:23:13.577Z,6.36
2019-02-16T05:24:13.561Z,6.41
2019-02-16T05:25:13.614Z,6.36
2019-02-16T05:26:13.592Z,6.36
2019-02-16T05:27:13.669Z,6.34
2019-02-16T05:28:13.597Z,6.38
2019-02-16T05:29:13.626Z,6.41
2019-02-16T05:30:13.588Z,6.41
2019-02-16T05:31:13.590Z,6.43
2019-02-16T05:32:13.601Z,6.39
2019-02-16T05:33:13.630Z,6.39
2019-02-16T05:34:13.610Z,6.44
2019-02-16T05:35:13.621Z,6.39
2019-02-16T05:36:13.624Z,6.35
2019-02-16T05:37:13.605Z,6.34
2019-02-16T05:38:13.638Z,6.34
2019-02-16T05:39:13.630Z,6.34
2019-02-16T05:40:13.614Z,6.31
2019-02-16T05:41:13.617Z,6.31
2019-02-16T05:42:13.635Z,6.34
2019-02-16T05:43:13.670Z,6.34
2019-02-16T05:44:13.624Z,6.35
2019-02-16T05:45:13.647Z,6.34
2019-02-16T05:46:13.673Z,6.26
2019-02-16T05:47:13.649Z,6.35
2019-02-16T05:48:13.640Z,6.20
2019-02-16T05:49:13.711Z,6.22
2019-02-16T05:50:13.654Z,6.31
2019-02-16T05:51:13.651Z,6.35
2019-02-16T05:52:13.665Z,6.25
2019-02-16T05:53:13.665Z,6.22
2019-02-16T05:54:13.664Z,6.39
2019-02-16T05:55:13.679Z,6.26
2019-02-16T05:56:13.692Z,6.19
2019-02-16T05:57:13.670Z,6.32
2019-02-16T05:58:13.675Z,6.29
2019-02-16T05:59:13.678Z,6.29
2019-02-16T06:00:13.740Z,6.25
2019-02-16T06:01:13.677Z,6.25
2019-02-16T06:02:13.701Z,6.25
2019-02-16T06:03:13.704Z,6.26
2019-02-16T06:04:13.696Z,6.19
2019-02-16T06:05:13.699Z,6.26
2019-02-16T06:06:13.725Z,6.26
2019-02-16T06:07:13.698Z,6.19
2019-02-16T06:08:13.704Z,6.28
2019-02-16T06:09:13.695Z,6.29
2019-02-16T06:10:13.702Z,6.20
2019-02-16T06:11:13.746Z,6.19
2019-02-16T06:12:13.796Z,6.20
2019-02-16T06:13:13.752Z,6.22
2019-02-16T06:14:13.723Z,6.25
2019-02-16T06:15:13.710Z,6.25
2019-02-16T06:16:13.753Z,6.19
2019-02-16T06:17:13.729Z,6.25
2019-02-16T06:18:13.845Z,6.25
2019-02-16T06:19:13.732Z,6.28
2019-02-16T06:20:13.739Z,6.25
2019-02-16T06:21:13.730Z,6.25
2019-02-16T06:22:13.738Z,6.17
2019-02-16T06:23:13.748Z,6.17
2019-02-16T06:24:13.768Z,6.16
2019-02-16T06:25:13.779Z,6.22
2019-02-16T06:26:13.772Z,6.25
2019-02-16T06:27:13.769Z,6.17
2019-02-16T06:28:13.794Z,6.28
2019-02-16T06:29:13.797Z,6.16
2019-02-16T06:30:13.765Z,6.25
2019-02-16T06:31:13.818Z,6.15
2019-02-16T06:32:13.784Z,6.25
2019-02-16T06:33:13.774Z,6.16
2019-02-16T06:34:13.791Z,6.28
2019-02-16T06:35:13.789Z,6.25
2019-02-16T06:36:13.795Z,6.29
2019-02-16T06:37:13.800Z,6.31
2019-02-16T06:38:13.804Z,6.26
2019-02-16T06:39:13.811Z,6.25
2019-02-16T06:40:13.824Z,6.36
2019-02-16T06:41:13.786Z,6.34
2019-02-16T06:42:13.787Z,6.35
2019-02-16T06:43:13.790Z,6.32
2019-02-16T06:44:13.800Z,6.32
2019-02-16T06:45:13.800Z,6.26
2019-02-16T06:46:13.873Z,6.32
2019-02-16T06:47:13.815Z,6.31
2019-02-16T06:48:13.805Z,6.28
2019-02-16T06:49:13.830Z,6.36
2019-02-16T06:50:13.896Z,6.32
2019-02-16T06:51:14.971Z,6.39
2019-02-16T06:52:13.823Z,6.38
2019-02-16T06:53:13.851Z,6.44
2019-02-16T06:54:13.828Z,6.36
2019-02-16T06:55:13.827Z,6.41
2019-02-16T06:56:13.913Z,6.43
2019-02-16T06:57:13.914Z,6.36
2019-02-16T06:58:13.847Z,6.36
2019-02-16T06:59:13.856Z,6.43
2019-02-16T07:00:13.868Z,6.49
2019-02-16T07:01:13.854Z,6.36
2019-02-16T07:02:13.881Z,6.43
2019-02-16T07:03:13.879Z,6.41
2019-02-16T07:04:13.878Z,6.41
2019-02-16T07:05:13.894Z,6.46
2019-02-16T07:06:13.897Z,6.49
2019-02-16T07:07:13.919Z,6.49
2019-02-16T07:08:13.874Z,6.52
2019-02-16T07:09:13.877Z,6.52
2019-02-16T07:10:13.880Z,6.52
2019-02-16T07:11:13.882Z,6.50
2019-02-16T07:12:13.979Z,6.52
2019-02-16T07:13:13.901Z,6.50
2019-02-16T07:14:13.952Z,6.53
2019-02-16T07:15:13.927Z,6.52
2019-02-16T07:16:13.907Z,6.62
2019-02-16T07:17:13.947Z,6.54
2019-02-16T07:18:13.890Z,6.52
2019-02-16T07:19:14.325Z,6.65
2019-02-16T07:20:13.906Z,6.68
2019-02-16T07:21:13.917Z,6.60
2019-02-16T07:22:13.907Z,6.68
2019-02-16T07:23:22.248Z,6.59
2019-02-16T07:24:13.952Z,6.60
2019-02-16T07:25:13.921Z,6.70
2019-02-16T07:26:13.948Z,6.68
2019-02-16T07:27:13.975Z,6.72
2019-02-16T07:28:13.942Z,6.72
2019-02-16T07:29:13.934Z,6.77
2019-02-16T07:30:13.937Z,6.78
2019-02-16T07:31:15.842Z,6.74
2019-02-16T07:32:13.956Z,6.71
2019-02-16T07:33:13.978Z,6.74
2019-02-16T07:34:13.968Z,6.77
2019-02-16T07:35:13.965Z,6.93
2019-02-16T07:36:13.954Z,6.82
2019-02-16T07:37:13.988Z,6.82
2019-02-16T07:38:13.973Z,6.83
2019-02-16T07:39:14.063Z,6.86
2019-02-16T07:40:13.961Z,6.87
2019-02-16T07:41:14.022Z,6.89
2019-02-16T07:42:14.022Z,6.89
2019-02-16T07:43:13.989Z,6.90
2019-02-16T07:44:14.018Z,6.86
2019-02-16T07:45:13.994Z,7.04
2019-02-16T07:46:14.022Z,6.96
2019-02-16T07:47:14.065Z,7.01
2019-02-16T07:48:14.008Z,6.97
2019-02-16T07:49:14.034Z,7.00
2019-02-16T07:50:13.997Z,7.04
2019-02-16T07:51:13.996Z,7.07
2019-02-16T07:52:14.042Z,6.96
2019-02-16T07:53:14.103Z,7.10
2019-02-16T07:54:14.057Z,7.03
2019-02-16T07:55:14.011Z,7.05
2019-02-16T07:56:14.064Z,7.03
2019-02-16T07:57:14.022Z,7.15
2019-02-16T07:58:14.050Z,7.14
2019-02-16T07:59:14.046Z,7.21
2019-02-16T08:00:14.078Z,7.23
2019-02-16T08:01:14.033Z,7.25
2019-02-16T08:02:14.043Z,7.26
2019-02-16T08:03:14.099Z,7.19
2019-02-16T08:04:14.063Z,7.26
2019-02-16T08:05:14.052Z,7.29
2019-02-16T08:06:14.103Z,7.41
2019-02-16T08:07:14.079Z,7.29
2019-02-16T08:08:14.050Z,7.36
2019-02-16T08:09:14.075Z,7.29
2019-02-16T08:10:14.112Z,7.43
2019-02-16T08:11:14.091Z,7.47
2019-02-16T08:12:14.089Z,7.46
2019-02-16T08:13:14.100Z,7.53
2019-02-16T08:14:14.143Z,7.47
2019-02-16T08:15:14.077Z,7.58
2019-02-16T08:16:14.138Z,7.53
2019-02-16T08:17:14.097Z,7.56
2019-02-16T08:18:14.093Z,7.59
2019-02-16T08:19:14.101Z,7.56
2019-02-16T08:20:14.158Z,7.67
2019-02-16T08:21:14.132Z,7.64
2019-02-16T08:22:14.103Z,7.66
2019-02-16T08:23:14.125Z,7.64
2019-02-16T08:24:14.109Z,7.64
2019-02-16T08:25:14.124Z,7.58
2019-02-16T08:26:14.189Z,7.72
2019-02-16T08:27:14.131Z,7.72
2019-02-16T08:28:14.180Z,7.69
2019-02-16T08:29:14.134Z,7.67
2019-02-16T08:30:14.241Z,7.69
2019-02-16T08:31:14.140Z,7.70
2019-02-16T08:32:14.169Z,7.75
2019-02-16T08:33:14.147Z,7.74
2019-02-16T08:34:14.187Z,7.85
2019-02-16T08:35:14.174Z,7.85
2019-02-16T08:36:14.174Z,7.91
2019-02-16T08:37:14.306Z,7.95
2019-02-16T08:38:14.180Z,7.95
2019-02-16T08:39:14.170Z,7.88
2019-02-16T08:40:14.188Z,7.93
2019-02-16T08:41:14.186Z,7.95
2019-02-16T08:42:14.250Z,7.96
2019-02-16T08:43:14.216Z,7.99
2019-02-16T08:44:14.181Z,7.99
2019-02-16T08:45:14.254Z,8.02
2019-02-16T08:46:14.230Z,8.13
2019-02-16T08:47:14.269Z,8.06
2019-02-16T08:48:14.268Z,8.06
2019-02-16T08:49:14.272Z,8.08
2019-02-16T08:50:14.207Z,8.09
2019-02-16T08:51:14.323Z,8.23
2019-02-16T08:52:14.250Z,8.20
2019-02-16T08:53:14.229Z,8.17
2019-02-16T08:54:14.254Z,8.24
2019-02-16T08:55:14.285Z,8.26
2019-02-16T08:56:14.263Z,8.26
2019-02-16T08:57:14.234Z,8.23
2019-02-16T08:58:14.252Z,8.27
2019-02-16T08:59:14.299Z,8.27
2019-02-16T09:00:14.271Z,8.39
2019-02-16T09:01:14.275Z,8.36
2019-02-16T09:02:14.267Z,8.45
2019-02-16T09:03:14.300Z,8.46
2019-02-16T09:04:14.325Z,8.50
2019-02-16T09:05:14.312Z,8.45
2019-02-16T09:06:14.264Z,8.52
2019-02-16T09:07:14.278Z,8.50
2019-02-16T09:08:14.380Z,8.53
2019-02-16T09:09:14.276Z,8.57
2019-02-16T09:10:14.302Z,8.64
2019-02-16T09:11:14.333Z,8.56
2019-02-16T09:12:14.325Z,8.63
2019-02-16T09:13:14.305Z,8.64
2019-02-16T09:14:14.290Z,8.63
2019-02-16T09:15:14.326Z,8.72
2019-02-16T09:16:14.353Z,8.68
2019-02-16T09:17:14.322Z,8.72
2019-02-16T09:18:14.315Z,8.75
2019-02-16T09:19:14.376Z,8.82
2019-02-16T09:20:14.321Z,8.79
2019-02-16T09:21:15.211Z,8.84
2019-02-16T09:22:14.359Z,8.78
2019-02-16T09:23:14.352Z,8.84
2019-02-16T09:24:14.371Z,8.87
2019-02-16T09:25:14.339Z,8.97
2019-02-16T09:26:14.381Z,8.95
2019-02-16T09:27:14.371Z,9.02
2019-02-16T09:28:14.385Z,9.09
2019-02-16T09:29:14.358Z,9.12
2019-02-16T09:30:14.372Z,9.12
2019-02-16T09:31:14.366Z,9.13
2019-02-16T09:32:14.412Z,9.03
2019-02-16T09:33:14.374Z,9.15
2019-02-16T09:34:14.379Z,9.19
2019-02-16T09:35:14.373Z,9.22
2019-02-16T09:36:14.413Z,9.27
2019-02-16T09:37:14.438Z,9.27
2019-02-16T09:38:14.442Z,9.29
2019-02-16T09:39:14.471Z,9.33
2019-02-16T09:40:14.423Z,9.33
2019-02-16T09:41:14.484Z,9.34
2019-02-16T09:42:14.442Z,9.45
2019-02-16T09:43:14.473Z,9.39
2019-02-16T09:44:14.416Z,9.48
2019-02-16T09:45:14.438Z,9.52
2019-02-16T09:46:14.464Z,9.45
2019-02-16T09:47:14.432Z,9.47
2019-02-16T09:48:14.430Z,9.49
2019-02-16T09:49:14.507Z,9.59
2019-02-16T09:50:14.448Z,9.66
2019-02-16T09:51:14.490Z,9.55
2019-02-16T09:52:14.484Z,9.74
2019-02-16T09:53:14.480Z,9.69
2019-02-16T09:54:14.547Z,9.76
2019-02-16T09:55:14.471Z,9.73
2019-02-16T09:56:14.484Z,9.74
2019-02-16T09:57:14.521Z,9.66
2019-02-16T09:58:14.493Z,9.80
2019-02-16T09:59:14.535Z,9.82
2019-02-16T10:00:14.500Z,9.84
2019-02-16T10:01:14.499Z,9.82
2019-02-16T10:02:14.525Z,9.92
2019-02-16T10:03:14.526Z,9.95
2019-02-16T10:04:14.502Z,9.87
2019-02-16T10:05:14.549Z,10.02
2019-02-16T10:06:14.529Z,9.94
2019-02-16T10:07:14.545Z,10.06
2019-02-16T10:08:14.531Z,10.09
2019-02-16T10:09:14.525Z,10.07
2019-02-16T10:10:14.563Z,10.13
2019-02-16T10:11:14.531Z,10.13
2019-02-16T10:12:14.587Z,10.20
2019-02-16T10:13:14.542Z,10.27
2019-02-16T10:14:14.573Z,10.25
2019-02-16T10:15:14.599Z,10.28
2019-02-16T10:16:14.554Z,10.27
2019-02-16T10:17:14.582Z,10.23
2019-02-16T10:18:14.585Z,10.36
2019-02-16T10:19:14.570Z,10.34
2019-02-16T10:20:14.637Z,10.45
2019-02-16T10:21:14.681Z,10.49
2019-02-16T10:22:14.660Z,10.42
2019-02-16T10:23:14.595Z,10.48
2019-02-16T10:24:17.813Z,10.53
2019-02-16T10:25:14.611Z,10.55
2019-02-16T10:26:14.617Z,10.49
2019-02-16T10:27:14.636Z,10.59
2019-02-16T10:28:14.673Z,10.67
2019-02-16T10:29:14.655Z,10.67
2019-02-16T10:30:14.638Z,10.69
2019-02-16T10:31:14.659Z,10.77
2019-02-16T10:32:14.678Z,10.80
2019-02-16T10:33:14.839Z,10.89
2019-02-16T10:34:14.679Z,10.86
2019-02-16T10:35:14.677Z,10.86
2019-02-16T10:36:14.669Z,10.84
2019-02-16T10:37:14.738Z,10.83
2019-02-16T10:38:14.742Z,10.94
2019-02-16T10:39:14.672Z,11.00
2019-02-16T10:40:14.738Z,10.94
2019-02-16T10:41:14.682Z,10.92
2019-02-16T10:42:14.744Z,10.95
2019-02-16T10:43:14.728Z,11.02
2019-02-16T10:44:14.744Z,11.10
2019-02-16T10:45:14.712Z,11.01
2019-02-16T10:46:14.717Z,11.08
2019-02-16T10:47:14.766Z,11.15
2019-02-16T10:48:14.800Z,11.15
2019-02-16T10:49:14.726Z,11.13
2019-02-16T10:50:14.763Z,11.26
2019-02-16T10:51:14.749Z,11.26
2019-02-16T10:52:14.760Z,11.31
2019-02-16T10:53:14.781Z,11.31
2019-02-16T10:54:14.765Z,11.38
2019-02-16T10:55:14.777Z,11.40
2019-02-16T10:56:14.765Z,11.43
2019-02-16T10:57:14.785Z,11.44
2019-02-16T10:58:14.796Z,11.41
2019-02-16T10:59:14.799Z,11.51
2019-02-16T11:00:14.788Z,11.48
2019-02-16T11:01:15.302Z,11.58
2019-02-16T11:02:14.846Z,11.59
2019-02-16T11:03:14.874Z,11.59
2019-02-16T11:04:14.836Z,11.56
2019-02-16T11:05:14.808Z,11.58
2019-02-16T11:06:14.826Z,11.55
2019-02-16T11:07:14.815Z,11.63
2019-02-16T11:08:14.867Z,11.63
2019-02-16T11:09:15.030Z,11.65
2019-02-16T11:10:14.839Z,11.67
2019-02-16T11:11:14.880Z,11.65
2019-02-16T11:12:14.850Z,11.71
2019-02-16T11:13:14.860Z,11.73
2019-02-16T11:14:14.856Z,11.76
2019-02-16T11:15:14.859Z,11.81
2019-02-16T11:16:14.872Z,11.80
2019-02-16T11:17:14.935Z,11.77
2019-02-16T11:18:14.962Z,11.85
2019-02-16T11:19:14.885Z,11.83
2019-02-16T11:20:14.898Z,11.76
2019-02-16T11:21:14.925Z,11.76
2019-02-16T11:22:15.005Z,11.78
2019-02-16T11:23:14.954Z,11.81
2019-02-16T11:24:14.987Z,11.80
2019-02-16T11:25:14.911Z,11.93
2019-02-16T11:26:14.973Z,11.99
2019-02-16T11:27:14.978Z,11.96
2019-02-16T11:28:14.985Z,11.95
2019-02-16T11:29:14.944Z,11.99
2019-02-16T11:30:14.970Z,12.05
2019-02-16T11:31:14.991Z,12.03
2019-02-16T11:32:15.003Z,12.05
2019-02-16T11:33:14.986Z,12.00
2019-02-16T11:34:14.984Z,11.97
2019-02-16T11:35:14.982Z,12.02
2019-02-16T11:36:14.993Z,12.12
2019-02-16T11:37:15.030Z,12.05
2019-02-16T11:38:16.321Z,12.12
2019-02-16T11:39:15.051Z,12.10
2019-02-16T11:40:15.018Z,12.08
2019-02-16T11:41:18.863Z,12.14
2019-02-16T11:42:15.095Z,12.15
2019-02-16T11:43:15.023Z,12.20
2019-02-16T11:44:15.027Z,12.20
2019-02-16T11:45:15.039Z,12.21
2019-02-16T11:46:15.052Z,12.18
2019-02-16T11:47:15.069Z,12.33
2019-02-16T11:48:15.095Z,12.30
2019-02-16T11:49:15.085Z,12.29
2019-02-16T11:50:15.108Z,12.26
2019-02-16T11:51:15.728Z,12.32
2019-02-16T11:52:15.152Z,12.39
2019-02-16T11:53:15.082Z,12.37
2019-02-16T11:54:15.095Z,12.37
2019-02-16T11:55:15.093Z,12.40
2019-02-16T11:56:15.107Z,12.43
2019-02-16T11:57:15.138Z,12.40
2019-02-16T11:58:15.095Z,12.39
2019-02-16T11:59:15.127Z,12.53
2019-02-16T12:00:15.400Z,12.54
2019-02-16T12:01:15.181Z,12.55
2019-02-16T12:02:15.145Z,12.55
2019-02-16T12:03:15.143Z,12.55
2019-02-16T12:04:17.118Z,12.55
2019-02-16T12:05:15.207Z,12.63
2019-02-16T12:06:15.185Z,12.72
2019-02-16T12:07:15.186Z,12.70
2019-02-16T12:08:15.166Z,12.68
2019-02-16T12:09:16.413Z,12.65
2019-02-16T12:10:15.215Z,12.70
2019-02-16T12:11:15.179Z,12.69
2019-02-16T12:12:15.203Z,12.70
2019-02-16T12:13:15.570Z,12.80
2019-02-16T12:14:15.203Z,12.73
2019-02-16T12:15:15.251Z,12.80
2019-02-16T12:16:15.259Z,12.73
2019-02-16T12:17:15.334Z,12.78
2019-02-16T12:18:15.270Z,12.86
2019-02-16T12:19:15.391Z,12.84
2019-02-16T12:20:15.255Z,12.87
2019-02-16T12:21:15.244Z,12.87
2019-02-16T12:22:15.303Z,12.88
2019-02-16T12:23:15.254Z,12.94
2019-02-16T12:24:15.255Z,12.94
2019-02-16T12:25:15.540Z,12.95
2019-02-16T12:26:15.293Z,12.98
2019-02-16T12:27:15.266Z,12.98
2019-02-16T12:28:15.283Z,13.06
2019-02-16T12:29:15.285Z,13.05
2019-02-16T12:30:15.316Z,13.02
2019-02-16T12:31:15.376Z,13.12
2019-02-16T12:32:15.321Z,13.09
2019-02-16T12:33:15.323Z,13.05
2019-02-16T12:34:15.340Z,13.16
2019-02-16T12:35:15.319Z,13.12
2019-02-16T12:36:15.347Z,13.21
2019-02-16T12:37:15.375Z,13.20
2019-02-16T12:38:15.343Z,13.16
2019-02-16T12:39:15.363Z,13.20
2019-02-16T12:40:15.846Z,13.26
2019-02-16T12:41:15.418Z,13.21
2019-02-16T12:42:15.517Z,13.27
2019-02-16T12:43:15.467Z,13.30
2019-02-16T12:44:15.380Z,13.31
2019-02-16T12:45:15.402Z,13.37
2019-02-16T12:46:15.432Z,13.36
2019-02-16T12:47:15.408Z,13.39
2019-02-16T12:48:15.531Z,13.40
2019-02-16T12:49:15.413Z,13.43
2019-02-16T12:50:15.495Z,13.40
2019-02-16T12:51:15.936Z,13.47
2019-02-16T12:52:15.431Z,13.40
2019-02-16T12:53:15.439Z,13.57
2019-02-16T12:54:15.469Z,13.58
2019-02-16T12:55:15.594Z,13.54
2019-02-16T12:56:15.539Z,13.52
2019-02-16T12:57:15.468Z,13.54
2019-02-16T12:58:15.473Z,13.65
2019-02-16T12:59:15.481Z,13.65
2019-02-16T13:00:15.486Z,13.64
2019-02-16T13:01:15.494Z,13.60
2019-02-16T13:02:15.547Z,13.67
2019-02-16T13:03:15.518Z,13.62
2019-02-16T13:04:15.512Z,13.70
2019-02-16T13:05:15.518Z,13.68
2019-02-16T13:06:15.561Z,13.70
2019-02-16T13:07:15.587Z,13.65
2019-02-16T13:08:15.621Z,13.82
2019-02-16T13:09:15.549Z,13.75
2019-02-16T13:10:15.568Z,13.80
2019-02-16T13:11:15.564Z,13.85
2019-02-16T13:12:15.575Z,13.80